sensor_id;sensor_type;location;lat;lon;timestamp;P1;durP1;ratioP1;P2;durP2;ratioP2
60306;SDS011;46155;52.364;6.580;2023-06-10T03:01:33;13.60;;;12.07;;
60306;SDS011;46155;52.364;6.580;2023-06-10T03:03:58;17.40;;;12.27;;
60306;SDS011;46155;52.364;6.580;2023-06-10T03:06:23;16.23;;;12.23;;
60306;SDS011;46155;52.364;6.580;2023-06-10T03:08:50;12.07;;;11.00;;
60306;SDS011;46155;52.364;6.580;2023-06-10T03:11:15;20.83;;;11.80;;
60306;SDS011;46155;52.364;6.580;2023-06-10T03:13:40;15.70;;;11.47;;
60306;SDS011;46155;52.364;6.580;2023-06-10T03:16:05;13.93;;;11.10;;
60306;SDS011;46155;52.364;6.580;2023-06-10T03:18:31;11.27;;;10.00;;
60306;SDS011;46155;52.364;6.580;2023-06-10T03:20:57;10.80;;;9.57;;
60306;SDS011;46155;52.364;6.580;2023-06-10T03:23:23;10.90;;;9.73;;
60306;SDS011;46155;52.364;6.580;2023-06-10T03:25:48;10.17;;;9.03;;
60306;SDS011;46155;52.364;6.580;2023-06-10T03:28:13;9.87;;;8.50;;
60306;SDS011;46155;52.364;6.580;2023-06-10T03:30:39;9.80;;;8.73;;
60306;SDS011;46155;52.364;6.580;2023-06-10T03:33:04;11.30;;;9.20;;
60306;SDS011;46155;52.364;6.580;2023-06-10T03:35:30;9.67;;;8.33;;
60306;SDS011;46155;52.364;6.580;2023-06-10T03:37:57;9.23;;;8.30;;
60306;SDS011;46155;52.364;6.580;2023-06-10T03:40:22;13.33;;;8.87;;
60306;SDS011;46155;52.364;6.580;2023-06-10T03:42:48;13.90;;;9.57;;
60306;SDS011;46155;52.364;6.580;2023-06-10T03:45:13;14.67;;;9.40;;
60306;SDS011;46155;52.364;6.580;2023-06-10T03:47:38;13.13;;;8.73;;
60306;SDS011;46155;52.364;6.580;2023-06-10T03:50:06;11.63;;;9.23;;
60306;SDS011;46155;52.364;6.580;2023-06-10T03:52:33;12.63;;;8.50;;
60306;SDS011;46155;52.364;6.580;2023-06-10T03:54:58;10.57;;;9.53;;
60306;SDS011;46155;52.364;6.580;2023-06-10T03:57:24;15.40;;;9.77;;
60306;SDS011;46155;52.364;6.580;2023-06-10T03:59:49;20.13;;;10.93;;
60306;SDS011;46155;52.364;6.580;2023-06-10T04:02:15;12.73;;;9.03;;
60306;SDS011;46155;52.364;6.580;2023-06-10T04:04:41;18.20;;;9.70;;
60306;SDS011;46155;52.364;6.580;2023-06-10T04:07:06;14.10;;;8.73;;
60306;SDS011;46155;52.364;6.580;2023-06-10T04:09:33;15.73;;;9.43;;
60306;SDS011;46155;52.364;6.580;2023-06-10T04:11:59;16.40;;;9.57;;
60306;SDS011;46155;52.364;6.580;2023-06-10T04:14:25;14.77;;;9.50;;
60306;SDS011;46155;52.364;6.580;2023-06-10T04:16:50;18.93;;;9.17;;
60306;SDS011;46155;52.364;6.580;2023-06-10T04:19:16;13.67;;;9.90;;
60306;SDS011;46155;52.364;6.580;2023-06-10T04:21:41;11.23;;;9.03;;
60306;SDS011;46155;52.364;6.580;2023-06-10T04:24:07;12.90;;;8.90;;
60306;SDS011;46155;52.364;6.580;2023-06-10T04:26:32;15.33;;;8.87;;
60306;SDS011;46155;52.364;6.580;2023-06-10T04:28:58;11.80;;;8.90;;
60306;SDS011;46155;52.364;6.580;2023-06-10T04:31:24;12.00;;;9.03;;
60306;SDS011;46155;52.364;6.580;2023-06-10T04:33:49;10.67;;;8.27;;
60306;SDS011;46155;52.364;6.580;2023-06-10T04:36:14;16.33;;;9.07;;
60306;SDS011;46155;52.364;6.580;2023-06-10T04:38:39;11.27;;;9.20;;
60306;SDS011;46155;52.364;6.580;2023-06-10T04:41:05;11.73;;;8.63;;
60306;SDS011;46155;52.364;6.580;2023-06-10T04:43:31;13.43;;;9.07;;
60306;SDS011;46155;52.364;6.580;2023-06-10T04:45:56;13.23;;;9.03;;
60306;SDS011;46155;52.364;6.580;2023-06-10T04:48:21;10.73;;;8.30;;
60306;SDS011;46155;52.364;6.580;2023-06-10T04:50:48;13.07;;;9.37;;
60306;SDS011;46155;52.364;6.580;2023-06-10T04:53:14;15.80;;;9.70;;
60306;SDS011;46155;52.364;6.580;2023-06-10T04:55:40;12.37;;;8.67;;
60306;SDS011;46155;52.364;6.580;2023-06-10T04:58:05;14.80;;;8.97;;
60306;SDS011;46155;52.364;6.580;2023-06-10T05:00:30;12.30;;;8.60;;
60306;SDS011;46155;52.364;6.580;2023-06-10T05:02:56;11.00;;;8.67;;
60306;SDS011;46155;52.364;6.580;2023-06-10T05:05:21;12.20;;;8.73;;
60306;SDS011;46155;52.364;6.580;2023-06-10T05:07:47;9.63;;;8.60;;
60306;SDS011;46155;52.364;6.580;2023-06-10T05:10:12;12.53;;;9.57;;
60306;SDS011;46155;52.364;6.580;2023-06-10T05:12:38;12.80;;;8.67;;
60306;SDS011;46155;52.364;6.580;2023-06-10T05:15:04;13.00;;;9.27;;
60306;SDS011;46155;52.364;6.580;2023-06-10T05:17:31;11.40;;;8.10;;
60306;SDS011;46155;52.364;6.580;2023-06-10T05:19:57;10.27;;;8.00;;
60306;SDS011;46155;52.364;6.580;2023-06-10T05:22:22;14.10;;;8.70;;
60306;SDS011;46155;52.364;6.580;2023-06-10T05:24:49;14.00;;;8.17;;
60306;SDS011;46155;52.364;6.580;2023-06-10T05:27:16;12.10;;;8.03;;
60306;SDS011;46155;52.364;6.580;2023-06-10T05:29:41;9.93;;;7.80;;
60306;SDS011;46155;52.364;6.580;2023-06-10T05:32:07;11.07;;;8.67;;
60306;SDS011;46155;52.364;6.580;2023-06-10T05:34:33;13.63;;;8.40;;
60306;SDS011;46155;52.364;6.580;2023-06-10T05:36:58;11.33;;;8.23;;
60306;SDS011;46155;52.364;6.580;2023-06-10T05:39:23;11.03;;;8.70;;
60306;SDS011;46155;52.364;6.580;2023-06-10T05:41:49;15.20;;;8.37;;
60306;SDS011;46155;52.364;6.580;2023-06-10T05:44:14;8.00;;;7.30;;
60306;SDS011;46155;52.364;6.580;2023-06-10T05:46:40;12.37;;;8.30;;
60306;SDS011;46155;52.364;6.580;2023-06-10T05:49:05;11.33;;;8.60;;
60306;SDS011;46155;52.364;6.580;2023-06-10T05:51:30;13.40;;;8.97;;
60306;SDS011;46155;52.364;6.580;2023-06-10T05:53:56;10.57;;;7.90;;
60306;SDS011;46155;52.364;6.580;2023-06-10T05:56:21;14.73;;;8.07;;
60306;SDS011;46155;52.364;6.580;2023-06-10T05:58:47;11.53;;;8.00;;
60306;SDS011;46155;52.364;6.580;2023-06-10T06:01:13;15.47;;;8.40;;
60306;SDS011;46155;52.364;6.580;2023-06-10T06:03:38;12.67;;;8.03;;
60306;SDS011;46155;52.364;6.580;2023-06-10T06:06:04;15.50;;;8.50;;
60306;SDS011;46155;52.364;6.580;2023-06-10T06:08:29;11.90;;;7.83;;
60306;SDS011;46155;52.364;6.580;2023-06-10T06:10:55;10.93;;;8.47;;
60306;SDS011;46155;52.364;6.580;2023-06-10T06:13:20;13.37;;;8.43;;
60306;SDS011;46155;52.364;6.580;2023-06-10T06:15:45;15.10;;;8.87;;
60306;SDS011;46155;52.364;6.580;2023-06-10T06:18:11;11.20;;;7.90;;
60306;SDS011;46155;52.364;6.580;2023-06-10T06:20:36;12.53;;;8.50;;
60306;SDS011;46155;52.364;6.580;2023-06-10T06:23:01;12.43;;;7.60;;
60306;SDS011;46155;52.364;6.580;2023-06-10T06:25:27;15.60;;;8.40;;
60306;SDS011;46155;52.364;6.580;2023-06-10T06:27:52;10.73;;;7.60;;
60306;SDS011;46155;52.364;6.580;2023-06-10T06:30:17;12.17;;;8.13;;
60306;SDS011;46155;52.364;6.580;2023-06-10T06:32:43;13.73;;;7.47;;
60306;SDS011;46155;52.364;6.580;2023-06-10T06:35:08;10.00;;;8.13;;
60306;SDS011;46155;52.364;6.580;2023-06-10T06:37:33;10.53;;;8.43;;
60306;SDS011;46155;52.364;6.580;2023-06-10T06:40:00;14.90;;;8.63;;
60306;SDS011;46155;52.364;6.580;2023-06-10T06:42:25;14.57;;;9.07;;
60306;SDS011;46155;52.364;6.580;2023-06-10T06:44:50;9.73;;;7.43;;
60306;SDS011;46155;52.364;6.580;2023-06-10T06:47:16;9.00;;;7.40;;
60306;SDS011;46155;52.364;6.580;2023-06-10T06:49:44;14.90;;;8.27;;
60306;SDS011;46155;52.364;6.580;2023-06-10T06:52:10;12.80;;;7.93;;
60306;SDS011;46155;52.364;6.580;2023-06-10T06:54:36;8.17;;;7.10;;
60306;SDS011;46155;52.364;6.580;2023-06-10T06:57:01;15.13;;;8.10;;
60306;SDS011;46155;52.364;6.580;2023-06-10T06:59:27;7.67;;;6.93;;
60306;SDS011;46155;52.364;6.580;2023-06-10T07:01:52;11.40;;;7.93;;
60306;SDS011;46155;52.364;6.580;2023-06-10T07:04:19;10.63;;;7.87;;
60306;SDS011;46155;52.364;6.580;2023-06-10T07:06:46;13.40;;;8.20;;
60306;SDS011;46155;52.364;6.580;2023-06-10T07:09:12;8.43;;;7.63;;
60306;SDS011;46155;52.364;6.580;2023-06-10T07:11:37;12.40;;;8.07;;
60306;SDS011;46155;52.364;6.580;2023-06-10T07:14:02;9.70;;;7.43;;
60306;SDS011;46155;52.364;6.580;2023-06-10T07:16:28;10.33;;;7.50;;
60306;SDS011;46155;52.364;6.580;2023-06-10T07:18:53;11.37;;;7.53;;
60306;SDS011;46155;52.364;6.580;2023-06-10T07:21:18;8.57;;;7.77;;
60306;SDS011;46155;52.364;6.580;2023-06-10T07:23:44;10.50;;;7.70;;
60306;SDS011;46155;52.364;6.580;2023-06-10T07:26:10;12.03;;;7.97;;
60306;SDS011;46155;52.364;6.580;2023-06-10T07:28:39;12.80;;;7.90;;
60306;SDS011;46155;52.364;6.580;2023-06-10T07:31:06;9.60;;;8.23;;
60306;SDS011;46155;52.364;6.580;2023-06-10T07:33:32;10.90;;;7.50;;
60306;SDS011;46155;52.364;6.580;2023-06-10T07:35:58;12.63;;;7.97;;
60306;SDS011;46155;52.364;6.580;2023-06-10T07:38:24;14.67;;;8.33;;
60306;SDS011;46155;52.364;6.580;2023-06-10T07:40:50;11.13;;;7.97;;
60306;SDS011;46155;52.364;6.580;2023-06-10T07:43:15;9.77;;;7.83;;
60306;SDS011;46155;52.364;6.580;2023-06-10T07:45:41;12.03;;;8.37;;
60306;SDS011;46155;52.364;6.580;2023-06-10T07:48:06;10.37;;;8.10;;
60306;SDS011;46155;52.364;6.580;2023-06-10T07:50:32;9.03;;;8.13;;
60306;SDS011;46155;52.364;6.580;2023-06-10T07:52:58;10.27;;;8.90;;
60306;SDS011;46155;52.364;6.580;2023-06-10T07:55:23;10.67;;;8.13;;
60306;SDS011;46155;52.364;6.580;2023-06-10T07:57:50;11.50;;;8.40;;
60306;SDS011;46155;52.364;6.580;2023-06-10T08:00:16;8.87;;;8.00;;
60306;SDS011;46155;52.364;6.580;2023-06-10T08:02:42;8.40;;;7.70;;
60306;SDS011;46155;52.364;6.580;2023-06-10T08:05:07;9.33;;;8.27;;
60306;SDS011;46155;52.364;6.580;2023-06-10T08:07:33;14.43;;;8.90;;
60306;SDS011;46155;52.364;6.580;2023-06-10T08:10:00;11.20;;;8.17;;
60306;SDS011;46155;52.364;6.580;2023-06-10T08:12:25;10.13;;;8.10;;
60306;SDS011;46155;52.364;6.580;2023-06-10T08:14:50;11.50;;;7.77;;
60306;SDS011;46155;52.364;6.580;2023-06-10T08:17:16;11.23;;;7.87;;
60306;SDS011;46155;52.364;6.580;2023-06-10T08:19:41;9.77;;;7.50;;
60306;SDS011;46155;52.364;6.580;2023-06-10T08:22:06;9.40;;;8.50;;
60306;SDS011;46155;52.364;6.580;2023-06-10T08:24:32;12.03;;;8.40;;
60306;SDS011;46155;52.364;6.580;2023-06-10T08:26:57;11.00;;;8.37;;
60306;SDS011;46155;52.364;6.580;2023-06-10T08:29:23;10.67;;;7.83;;
60306;SDS011;46155;52.364;6.580;2023-06-10T08:31:48;8.83;;;7.90;;
60306;SDS011;46155;52.364;6.580;2023-06-10T08:34:14;11.30;;;8.60;;
60306;SDS011;46155;52.364;6.580;2023-06-10T08:36:39;10.07;;;8.00;;
60306;SDS011;46155;52.364;6.580;2023-06-10T08:39:05;12.50;;;8.20;;
60306;SDS011;46155;52.364;6.580;2023-06-10T08:41:30;8.37;;;7.47;;
60306;SDS011;46155;52.364;6.580;2023-06-10T08:44:08;10.57;;;8.13;;
60306;SDS011;46155;52.364;6.580;2023-06-10T08:46:37;10.90;;;8.47;;
60306;SDS011;46155;52.364;6.580;2023-06-10T08:49:05;10.83;;;7.60;;
60306;SDS011;46155;52.364;6.580;2023-06-10T08:51:34;9.73;;;8.63;;
60306;SDS011;46155;52.364;6.580;2023-06-10T08:54:02;8.83;;;8.10;;
60306;SDS011;46155;52.364;6.580;2023-06-10T08:56:36;11.33;;;8.20;;
60306;SDS011;46155;52.364;6.580;2023-06-10T08:59:05;10.33;;;8.53;;
60306;SDS011;46155;52.364;6.580;2023-06-10T09:01:30;12.90;;;8.30;;
60306;SDS011;46155;52.364;6.580;2023-06-10T09:03:56;10.87;;;8.07;;
60306;SDS011;46155;52.364;6.580;2023-06-10T09:06:23;12.27;;;7.93;;
60306;SDS011;46155;52.364;6.580;2023-06-10T09:08:49;11.20;;;8.37;;
60306;SDS011;46155;52.364;6.580;2023-06-10T09:11:15;9.53;;;7.43;;
60306;SDS011;46155;52.364;6.580;2023-06-10T09:13:41;8.73;;;7.50;;
60306;SDS011;46155;52.364;6.580;2023-06-10T09:16:06;9.77;;;8.30;;
60306;SDS011;46155;52.364;6.580;2023-06-10T09:18:31;11.03;;;7.37;;
60306;SDS011;46155;52.364;6.580;2023-06-10T09:20:57;9.60;;;7.63;;
60306;SDS011;46155;52.364;6.580;2023-06-10T09:23:22;11.00;;;8.53;;
60306;SDS011;46155;52.364;6.580;2023-06-10T09:25:53;10.93;;;7.97;;
60306;SDS011;46155;52.364;6.580;2023-06-10T09:28:21;11.17;;;8.30;;
60306;SDS011;46155;52.364;6.580;2023-06-10T09:30:47;8.63;;;7.83;;
60306;SDS011;46155;52.364;6.580;2023-06-10T09:33:12;9.10;;;7.83;;
60306;SDS011;46155;52.364;6.580;2023-06-10T09:35:48;9.70;;;8.70;;
60306;SDS011;46155;52.364;6.580;2023-06-10T09:38:21;11.73;;;8.67;;
60306;SDS011;46155;52.364;6.580;2023-06-10T09:40:51;9.57;;;8.67;;
60306;SDS011;46155;52.364;6.580;2023-06-10T09:43:17;8.73;;;7.93;;
60306;SDS011;46155;52.364;6.580;2023-06-10T09:45:43;9.33;;;8.40;;
60306;SDS011;46155;52.364;6.580;2023-06-10T09:48:08;9.03;;;8.07;;
60306;SDS011;46155;52.364;6.580;2023-06-10T09:50:34;10.37;;;8.20;;
60306;SDS011;46155;52.364;6.580;2023-06-10T09:53:02;9.77;;;8.67;;
60306;SDS011;46155;52.364;6.580;2023-06-10T09:55:32;9.00;;;8.10;;
60306;SDS011;46155;52.364;6.580;2023-06-10T09:57:58;12.23;;;8.10;;
60306;SDS011;46155;52.364;6.580;2023-06-10T10:00:23;8.53;;;7.73;;
60306;SDS011;46155;52.364;6.580;2023-06-10T10:02:51;9.00;;;8.10;;
60306;SDS011;46155;52.364;6.580;2023-06-10T10:05:19;11.87;;;7.57;;
60306;SDS011;46155;52.364;6.580;2023-06-10T10:07:46;14.73;;;8.83;;
60306;SDS011;46155;52.364;6.580;2023-06-10T10:10:12;8.67;;;7.87;;
60306;SDS011;46155;52.364;6.580;2023-06-10T10:12:40;11.27;;;8.23;;
60306;SDS011;46155;52.364;6.580;2023-06-10T10:15:06;11.27;;;8.50;;
60306;SDS011;46155;52.364;6.580;2023-06-10T10:17:46;9.63;;;8.63;;
60306;SDS011;46155;52.364;6.580;2023-06-10T10:20:17;9.17;;;8.30;;
60306;SDS011;46155;52.364;6.580;2023-06-10T10:22:49;8.27;;;7.57;;
60306;SDS011;46155;52.364;6.580;2023-06-10T10:25:23;9.57;;;7.77;;
60306;SDS011;46155;52.364;6.580;2023-06-10T10:27:57;9.67;;;8.67;;
60306;SDS011;46155;52.364;6.580;2023-06-10T10:30:27;11.20;;;9.37;;
60306;SDS011;46155;52.364;6.580;2023-06-10T10:32:56;10.13;;;8.43;;
60306;SDS011;46155;52.364;6.580;2023-06-10T10:35:29;10.20;;;9.07;;
60306;SDS011;46155;52.364;6.580;2023-06-10T10:37:55;9.70;;;8.70;;
60306;SDS011;46155;52.364;6.580;2023-06-10T10:40:21;8.83;;;7.93;;
60306;SDS011;46155;52.364;6.580;2023-06-10T10:42:48;11.63;;;8.30;;
60306;SDS011;46155;52.364;6.580;2023-06-10T10:45:14;10.27;;;8.00;;
60306;SDS011;46155;52.364;6.580;2023-06-10T10:47:40;9.63;;;8.60;;
60306;SDS011;46155;52.364;6.580;2023-06-10T10:50:14;11.30;;;10.07;;
60306;SDS011;46155;52.364;6.580;2023-06-10T10:52:51;12.00;;;8.87;;
60306;SDS011;46155;52.364;6.580;2023-06-10T10:55:17;8.83;;;7.97;;
60306;SDS011;46155;52.364;6.580;2023-06-10T10:57:43;8.53;;;7.77;;
60306;SDS011;46155;52.364;6.580;2023-06-10T11:00:08;11.23;;;9.03;;
60306;SDS011;46155;52.364;6.580;2023-06-10T11:02:40;12.30;;;8.13;;
60306;SDS011;46155;52.364;6.580;2023-06-10T11:05:08;10.30;;;9.27;;
60306;SDS011;46155;52.364;6.580;2023-06-10T11:07:35;8.63;;;7.93;;
60306;SDS011;46155;52.364;6.580;2023-06-10T11:15:12;10.33;;;7.97;;
60306;SDS011;46155;52.364;6.580;2023-06-10T11:17:37;9.33;;;8.10;;
60306;SDS011;46155;52.364;6.580;2023-06-10T11:20:42;9.37;;;7.97;;
60306;SDS011;46155;52.364;6.580;2023-06-10T11:23:07;9.07;;;8.17;;
60306;SDS011;46155;52.364;6.580;2023-06-10T11:25:39;10.37;;;8.67;;
60306;SDS011;46155;52.364;6.580;2023-06-10T11:28:28;9.17;;;8.33;;
60306;SDS011;46155;52.364;6.580;2023-06-10T11:30:56;9.30;;;8.60;;
60306;SDS011;46155;52.364;6.580;2023-06-10T11:33:23;8.70;;;7.80;;
60306;SDS011;46155;52.364;6.580;2023-06-10T11:35:49;8.90;;;8.10;;
60306;SDS011;46155;52.364;6.580;2023-06-10T11:38:15;9.17;;;8.13;;
60306;SDS011;46155;52.364;6.580;2023-06-10T11:40:40;10.50;;;9.27;;
60306;SDS011;46155;52.364;6.580;2023-06-10T11:43:13;9.57;;;7.87;;
60306;SDS011;46155;52.364;6.580;2023-06-10T11:45:40;8.37;;;7.67;;
60306;SDS011;46155;52.364;6.580;2023-06-10T11:48:06;8.87;;;7.97;;
60306;SDS011;46155;52.364;6.580;2023-06-10T11:50:34;12.47;;;8.83;;
60306;SDS011;46155;52.364;6.580;2023-06-10T11:52:59;8.60;;;7.80;;
60306;SDS011;46155;52.364;6.580;2023-06-10T11:55:25;8.33;;;7.73;;
60306;SDS011;46155;52.364;6.580;2023-06-10T11:58:04;8.90;;;8.20;;
60306;SDS011;46155;52.364;6.580;2023-06-10T12:00:29;11.60;;;8.73;;
60306;SDS011;46155;52.364;6.580;2023-06-10T12:02:56;8.77;;;8.10;;
60306;SDS011;46155;52.364;6.580;2023-06-10T12:05:22;7.87;;;7.27;;
60306;SDS011;46155;52.364;6.580;2023-06-10T12:07:48;8.20;;;7.50;;
60306;SDS011;46155;52.364;6.580;2023-06-10T12:10:13;9.17;;;8.37;;
60306;SDS011;46155;52.364;6.580;2023-06-10T12:12:39;9.13;;;8.33;;
60306;SDS011;46155;52.364;6.580;2023-06-10T12:15:06;7.67;;;7.07;;
60306;SDS011;46155;52.364;6.580;2023-06-10T12:19:57;8.70;;;7.83;;
60306;SDS011;46155;52.364;6.580;2023-06-10T12:22:24;8.47;;;7.77;;
60306;SDS011;46155;52.364;6.580;2023-06-10T12:27:24;8.50;;;7.77;;
60306;SDS011;46155;52.364;6.580;2023-06-10T12:29:52;7.30;;;6.60;;
60306;SDS011;46155;52.364;6.580;2023-06-10T12:32:21;8.80;;;7.83;;
60306;SDS011;46155;52.364;6.580;2023-06-10T12:35:01;9.27;;;8.30;;
60306;SDS011;46155;52.364;6.580;2023-06-10T12:37:29;8.20;;;7.37;;
60306;SDS011;46155;52.364;6.580;2023-06-10T12:39:54;8.63;;;7.80;;
60306;SDS011;46155;52.364;6.580;2023-06-10T12:42:21;8.27;;;7.57;;
60306;SDS011;46155;52.364;6.580;2023-06-10T12:44:52;8.77;;;7.13;;
60306;SDS011;46155;52.364;6.580;2023-06-10T12:47:18;11.43;;;7.20;;
60306;SDS011;46155;52.364;6.580;2023-06-10T12:49:44;9.80;;;8.43;;
60306;SDS011;46155;52.364;6.580;2023-06-10T12:52:09;8.57;;;7.77;;
60306;SDS011;46155;52.364;6.580;2023-06-10T12:54:35;7.87;;;7.17;;
60306;SDS011;46155;52.364;6.580;2023-06-10T12:57:00;8.03;;;7.33;;
60306;SDS011;46155;52.364;6.580;2023-06-10T12:59:26;8.20;;;7.40;;
60306;SDS011;46155;52.364;6.580;2023-06-10T13:01:52;7.67;;;6.97;;
60306;SDS011;46155;52.364;6.580;2023-06-10T13:04:18;8.07;;;7.37;;
60306;SDS011;46155;52.364;6.580;2023-06-10T13:06:44;8.90;;;8.20;;
60306;SDS011;46155;52.364;6.580;2023-06-10T13:09:11;8.90;;;8.10;;
60306;SDS011;46155;52.364;6.580;2023-06-10T13:11:37;8.83;;;8.10;;
60306;SDS011;46155;52.364;6.580;2023-06-10T13:14:03;8.40;;;7.70;;
60306;SDS011;46155;52.364;6.580;2023-06-10T13:16:30;11.53;;;8.57;;
60306;SDS011;46155;52.364;6.580;2023-06-10T13:18:56;9.70;;;7.97;;
60306;SDS011;46155;52.364;6.580;2023-06-10T13:21:21;10.73;;;8.03;;
60306;SDS011;46155;52.364;6.580;2023-06-10T13:23:46;9.33;;;8.50;;
60306;SDS011;46155;52.364;6.580;2023-06-10T13:26:15;9.30;;;8.50;;
60306;SDS011;46155;52.364;6.580;2023-06-10T13:28:43;10.40;;;8.53;;
60306;SDS011;46155;52.364;6.580;2023-06-10T13:31:09;8.20;;;7.40;;
60306;SDS011;46155;52.364;6.580;2023-06-10T13:33:35;8.83;;;8.17;;
60306;SDS011;46155;52.364;6.580;2023-06-10T13:36:00;8.97;;;8.17;;
60306;SDS011;46155;52.364;6.580;2023-06-10T13:38:25;8.50;;;7.67;;
60306;SDS011;46155;52.364;6.580;2023-06-10T13:40:51;8.57;;;7.97;;
60306;SDS011;46155;52.364;6.580;2023-06-10T13:43:16;8.67;;;7.77;;
60306;SDS011;46155;52.364;6.580;2023-06-10T13:45:41;9.80;;;7.43;;
60306;SDS011;46155;52.364;6.580;2023-06-10T13:48:07;8.67;;;7.77;;
60306;SDS011;46155;52.364;6.580;2023-06-10T13:50:32;9.03;;;8.13;;
60306;SDS011;46155;52.364;6.580;2023-06-10T13:52:57;8.80;;;8.03;;
60306;SDS011;46155;52.364;6.580;2023-06-10T13:55:23;8.93;;;8.10;;
60306;SDS011;46155;52.364;6.580;2023-06-10T13:57:49;8.13;;;7.33;;
60306;SDS011;46155;52.364;6.580;2023-06-10T14:00:15;10.17;;;8.10;;
60306;SDS011;46155;52.364;6.580;2023-06-10T14:02:40;10.23;;;8.27;;
60306;SDS011;46155;52.364;6.580;2023-06-10T14:05:06;9.10;;;8.23;;
60306;SDS011;46155;52.364;6.580;2023-06-10T14:07:33;9.03;;;8.23;;
60306;SDS011;46155;52.364;6.580;2023-06-10T14:09:58;8.53;;;7.73;;
60306;SDS011;46155;52.364;6.580;2023-06-10T14:12:24;8.20;;;7.40;;
60306;SDS011;46155;52.364;6.580;2023-06-10T14:14:49;8.90;;;7.30;;
60306;SDS011;46155;52.364;6.580;2023-06-10T14:17:15;9.50;;;8.57;;
60306;SDS011;46155;52.364;6.580;2023-06-10T14:19:40;8.90;;;8.10;;
60306;SDS011;46155;52.364;6.580;2023-06-10T14:22:05;9.33;;;8.53;;
60306;SDS011;46155;52.364;6.580;2023-06-10T14:24:32;8.60;;;7.47;;
60306;SDS011;46155;52.364;6.580;2023-06-10T14:26:57;11.63;;;8.00;;
60306;SDS011;46155;52.364;6.580;2023-06-10T14:29:23;9.23;;;8.17;;
60306;SDS011;46155;52.364;6.580;2023-06-10T14:31:48;8.87;;;8.07;;
60306;SDS011;46155;52.364;6.580;2023-06-10T14:34:14;8.57;;;7.77;;
60306;SDS011;46155;52.364;6.580;2023-06-10T14:36:39;8.70;;;7.90;;
60306;SDS011;46155;52.364;6.580;2023-06-10T14:39:05;9.53;;;8.67;;
60306;SDS011;46155;52.364;6.580;2023-06-10T14:41:30;8.67;;;7.90;;
60306;SDS011;46155;52.364;6.580;2023-06-10T14:43:56;8.80;;;7.90;;
60306;SDS011;46155;52.364;6.580;2023-06-10T14:46:21;8.70;;;7.80;;
60306;SDS011;46155;52.364;6.580;2023-06-10T14:48:46;9.07;;;8.10;;
60306;SDS011;46155;52.364;6.580;2023-06-10T14:51:12;11.87;;;8.17;;
60306;SDS011;46155;52.364;6.580;2023-06-10T14:53:37;12.43;;;8.40;;
60306;SDS011;46155;52.364;6.580;2023-06-10T14:56:03;9.00;;;7.33;;
60306;SDS011;46155;52.364;6.580;2023-06-10T14:58:28;10.23;;;8.77;;
60306;SDS011;46155;52.364;6.580;2023-06-10T15:00:54;10.67;;;8.43;;
60306;SDS011;46155;52.364;6.580;2023-06-10T15:03:19;9.83;;;8.93;;
60306;SDS011;46155;52.364;6.580;2023-06-10T15:05:44;9.73;;;8.80;;
60306;SDS011;46155;52.364;6.580;2023-06-10T15:08:10;9.50;;;8.67;;
60306;SDS011;46155;52.364;6.580;2023-06-10T15:10:36;8.90;;;8.10;;
60306;SDS011;46155;52.364;6.580;2023-06-10T15:13:01;9.03;;;8.30;;
60306;SDS011;46155;52.364;6.580;2023-06-10T15:15:27;9.60;;;8.60;;
60306;SDS011;46155;52.364;6.580;2023-06-10T15:17:52;9.70;;;8.90;;
60306;SDS011;46155;52.364;6.580;2023-06-10T15:20:18;9.20;;;8.40;;
60306;SDS011;46155;52.364;6.580;2023-06-10T15:22:44;9.47;;;8.67;;
60306;SDS011;46155;52.364;6.580;2023-06-10T15:25:09;9.40;;;8.53;;
60306;SDS011;46155;52.364;6.580;2023-06-10T15:27:34;11.77;;;8.70;;
60306;SDS011;46155;52.364;6.580;2023-06-10T15:29:59;9.13;;;8.23;;
60306;SDS011;46155;52.364;6.580;2023-06-10T15:32:25;11.50;;;8.93;;
60306;SDS011;46155;52.364;6.580;2023-06-10T15:34:50;9.70;;;8.83;;
60306;SDS011;46155;52.364;6.580;2023-06-10T15:37:17;9.90;;;8.97;;
60306;SDS011;46155;52.364;6.580;2023-06-10T15:39:43;10.37;;;8.03;;
60306;SDS011;46155;52.364;6.580;2023-06-10T15:42:08;8.90;;;8.00;;
60306;SDS011;46155;52.364;6.580;2023-06-10T15:44:33;9.13;;;8.33;;
60306;SDS011;46155;52.364;6.580;2023-06-10T15:46:59;10.23;;;9.03;;
60306;SDS011;46155;52.364;6.580;2023-06-10T15:49:24;9.17;;;8.30;;
60306;SDS011;46155;52.364;6.580;2023-06-10T15:51:50;13.73;;;9.03;;
60306;SDS011;46155;52.364;6.580;2023-06-10T15:54:15;9.93;;;9.03;;
60306;SDS011;46155;52.364;6.580;2023-06-10T15:56:40;10.13;;;9.13;;
60306;SDS011;46155;52.364;6.580;2023-06-10T15:59:06;9.83;;;9.03;;
60306;SDS011;46155;52.364;6.580;2023-06-10T16:01:31;11.40;;;9.03;;
60306;SDS011;46155;52.364;6.580;2023-06-10T16:03:56;14.17;;;8.83;;
60306;SDS011;46155;52.364;6.580;2023-06-10T16:06:22;8.70;;;8.10;;
60306;SDS011;46155;52.364;6.580;2023-06-10T16:08:47;10.47;;;9.47;;
60306;SDS011;46155;52.364;6.580;2023-06-10T16:11:12;13.50;;;9.17;;
60306;SDS011;46155;52.364;6.580;2023-06-10T16:13:38;9.13;;;8.43;;
60306;SDS011;46155;52.364;6.580;2023-06-10T16:16:05;8.70;;;7.90;;
60306;SDS011;46155;52.364;6.580;2023-06-10T16:18:31;9.77;;;8.70;;
60306;SDS011;46155;52.364;6.580;2023-06-10T16:20:56;14.87;;;8.97;;
60306;SDS011;46155;52.364;6.580;2023-06-10T16:23:22;10.03;;;9.13;;
60306;SDS011;46155;52.364;6.580;2023-06-10T16:25:47;9.10;;;8.37;;
60306;SDS011;46155;52.364;6.580;2023-06-10T16:28:12;9.17;;;8.27;;
60306;SDS011;46155;52.364;6.580;2023-06-10T16:30:37;9.20;;;8.30;;
60306;SDS011;46155;52.364;6.580;2023-06-10T16:33:03;10.00;;;8.43;;
60306;SDS011;46155;52.364;6.580;2023-06-10T16:35:29;9.57;;;8.80;;
60306;SDS011;46155;52.364;6.580;2023-06-10T16:37:54;9.63;;;8.47;;
60306;SDS011;46155;52.364;6.580;2023-06-10T16:40:20;12.20;;;8.67;;
60306;SDS011;46155;52.364;6.580;2023-06-10T16:42:45;10.37;;;9.23;;
60306;SDS011;46155;52.364;6.580;2023-06-10T16:45:10;9.47;;;8.57;;
60306;SDS011;46155;52.364;6.580;2023-06-10T16:47:36;14.93;;;8.13;;
60306;SDS011;46155;52.364;6.580;2023-06-10T16:50:01;9.77;;;8.83;;
60306;SDS011;46155;52.364;6.580;2023-06-10T16:52:28;9.33;;;8.60;;
60306;SDS011;46155;52.364;6.580;2023-06-10T16:54:54;10.50;;;9.03;;
60306;SDS011;46155;52.364;6.580;2023-06-10T16:57:19;12.60;;;8.53;;
60306;SDS011;46155;52.364;6.580;2023-06-10T16:59:45;9.53;;;8.73;;
60306;SDS011;46155;52.364;6.580;2023-06-10T17:02:10;9.13;;;8.40;;
60306;SDS011;46155;52.364;6.580;2023-06-10T17:04:35;13.10;;;8.63;;
60306;SDS011;46155;52.364;6.580;2023-06-10T17:07:01;11.33;;;9.43;;
60306;SDS011;46155;52.364;6.580;2023-06-10T17:09:26;10.30;;;9.13;;
60306;SDS011;46155;52.364;6.580;2023-06-10T17:11:52;10.13;;;9.10;;
60306;SDS011;46155;52.364;6.580;2023-06-10T17:14:17;10.57;;;9.37;;
60306;SDS011;46155;52.364;6.580;2023-06-10T17:16:42;10.43;;;9.53;;
60306;SDS011;46155;52.364;6.580;2023-06-10T17:19:08;9.33;;;8.73;;
60306;SDS011;46155;52.364;6.580;2023-06-10T17:21:33;9.60;;;8.70;;
60306;SDS011;46155;52.364;6.580;2023-06-10T17:23:58;9.60;;;8.13;;
60306;SDS011;46155;52.364;6.580;2023-06-10T17:26:24;10.13;;;9.00;;
60306;SDS011;46155;52.364;6.580;2023-06-10T17:28:50;9.80;;;8.87;;
60306;SDS011;46155;52.364;6.580;2023-06-10T17:31:16;10.70;;;9.70;;
60306;SDS011;46155;52.364;6.580;2023-06-10T17:33:41;9.93;;;9.03;;
60306;SDS011;46155;52.364;6.580;2023-06-10T17:36:06;9.93;;;9.00;;
60306;SDS011;46155;52.364;6.580;2023-06-10T17:38:32;14.53;;;10.20;;
60306;SDS011;46155;52.364;6.580;2023-06-10T17:40:57;11.87;;;9.10;;
60306;SDS011;46155;52.364;6.580;2023-06-10T17:43:22;14.23;;;9.40;;
60306;SDS011;46155;52.364;6.580;2023-06-10T17:45:48;10.53;;;9.20;;